Jump to content


COMPASS FLIGHT CP5833 FLOWN ON 01-30-2018 BY CAPTAIN DEREK ROGY

Pilot StatsCaptain Derek Rogy (LDP86) • 1,528.3 total hours • 819 total flights [View Logbook]
FLIGHT DETAILS
StatusReceived and approved on 2018-01-30 at 11:01:43
Origin AirportSeattle-Tacoma Intl (KSEA) • Seattle, Washington, United States (433 feet MSL)
Filed Flight PlanKSEA TAOMA J5 POWEL KRDM
Destination AirportRoberts (KRDM) • Redmond, Oregon, United States (3,076 feet MSL)
Alternate AirportNone Filed
AirlineCompass
AircraftEmbraer E-175 (E75 / E175)
FS Aircraft UsedEmbraer 175 Delta Connection
Cruising AltitudeFL230
Distance Flown198 nautical miles
Passengers Onboard56 passengers (66.67% full)
DEPARTURE DETAILS
Time Out12:08:32
Taxi Data68,329 lbs total with 8,586 lbs of fuel onboard
Takeoff Data12:22:58 (14 minutes after leaving gate/ramp) • 67,968 lbs total • 4° pitch at 163 knots
Departure METARKSEA 301453Z 18008KT 10SM SCT016 BKN021 OVC160 06/03 A3007 RMK AO2 SLP192 T00560033 53012
ARRIVAL DETAILS
Landing Data13:04:14 • 65,453 lbs total • 3° pitch doing 137 knots at a rate of -123.80 feet/minute with 5,642 lbs of fuel onboard
Time In13:06:47 (3 minutes after landing)
Ramp Weight65,384 lbs total
Total Fuel Used2,944 lbs
Total Block Time00:58:14 (1 hour) while 17 minutes were spent on the ground
Arrival METARKRDM 301556Z 32014G19KT 10SM BKN048 05/M01 A3003 RMK AO2 SLP168 T00501011
MISCELLANEOUS DETAILS
LiveDISPATCH Version4.8.3.1
FS Version
FSUIPC Version5.12
OS VersionWindows 7 32-bit
Screen Resolution1920 x 1200
Pilot's CommentsKSEA SUMMA6 SUMMA DSD KRDM
FLIGHT MAP